createdAt,value
2017-03-10T00:00:58.621Z,5.6
2017-03-10T00:02:00.776Z,5.6
2017-03-10T00:03:03.760Z,5.6
2017-03-10T00:04:06.221Z,5.7
2017-03-10T00:05:08.550Z,5.6
2017-03-10T00:06:11.521Z,5.6
2017-03-10T00:07:13.985Z,5.6
2017-03-10T00:08:16.794Z,5.6
2017-03-10T00:09:19.248Z,5.6
2017-03-10T00:10:21.539Z,5.5
2017-03-10T00:11:24.326Z,5.5
2017-03-10T00:12:26.814Z,5.5
2017-03-10T00:14:32.194Z,5.5
2017-03-10T00:15:34.651Z,5.6
2017-03-10T00:16:37.106Z,5.6
2017-03-10T00:17:40.588Z,5.6
2017-03-10T00:18:42.563Z,5.5
2017-03-10T00:19:45.021Z,5.5
2017-03-10T00:20:48.006Z,5.5
2017-03-10T00:21:49.995Z,5.5
2017-03-10T00:22:53.477Z,5.5
2017-03-10T00:23:55.436Z,5.6
2017-03-10T00:24:57.885Z,5.5
2017-03-10T00:26:00.674Z,5.6
2017-03-10T00:27:03.139Z,5.6
2017-03-10T00:28:05.591Z,5.6
2017-03-10T00:30:11.521Z,5.5
2017-03-10T00:31:13.468Z,5.5
2017-03-10T00:32:15.956Z,5.5
2017-03-10T00:33:18.921Z,5.5
2017-03-10T00:34:21.382Z,5.5
2017-03-10T00:35:24.361Z,5.5
2017-03-10T00:36:26.351Z,5.4
2017-03-10T00:37:29.142Z,5.5
2017-03-10T00:38:32.128Z,5.5
2017-03-10T00:39:34.091Z,5.5
2017-03-10T00:40:37.048Z,5.5
2017-03-10T00:41:39.515Z,5.5
2017-03-10T00:42:41.986Z,5.6
2017-03-10T00:43:44.453Z,5.6
2017-03-10T00:45:49.818Z,5.5
2017-03-10T00:46:52.268Z,5.4
2017-03-10T00:47:54.562Z,5.5
2017-03-10T00:48:57.537Z,5.5
2017-03-10T00:50:00.009Z,5.4
2017-03-10T00:53:07.790Z,5.5
2017-03-10T00:57:18.311Z,5.4
2017-03-10T01:05:39.653Z,5.4
2017-03-10T01:06:41.631Z,5.5
2017-03-10T01:07:44.624Z,5.4
2017-03-10T01:08:46.582Z,5.5
2017-03-10T01:10:51.945Z,5.5
2017-03-10T01:13:59.731Z,5.5
2017-03-10T01:32:46.132Z,5.3
2017-03-10T01:36:56.327Z,5.3
2017-03-10T01:37:59.293Z,5.3
2017-03-10T01:39:02.281Z,5.3
2017-03-10T01:40:04.247Z,5.2
2017-03-10T01:41:06.736Z,5.3
2017-03-10T01:42:09.197Z,5.2
2017-03-10T01:43:12.164Z,5.2
2017-03-10T01:44:14.450Z,5.1
2017-03-10T01:45:16.925Z,5.2
2017-03-10T01:46:19.885Z,5.1
2017-03-10T01:47:22.341Z,5.2
2017-03-10T01:48:24.803Z,5.2
2017-03-10T01:49:27.816Z,5.2
2017-03-10T01:50:30.265Z,5.1
2017-03-10T01:51:32.736Z,5.1
2017-03-10T01:52:35.204Z,5.1
2017-03-10T01:53:37.656Z,5
2017-03-10T01:54:41.146Z,5.1
2017-03-10T01:55:43.651Z,5
2017-03-10T01:56:45.602Z,5
2017-03-10T01:57:48.058Z,5
2017-03-10T01:58:50.547Z,5
2017-03-10T01:59:53.506Z,5
2017-03-10T02:00:55.975Z,5
2017-03-10T02:01:58.447Z,5
2017-03-10T02:03:00.903Z,5.1
2017-03-10T02:04:03.358Z,5.1
2017-03-10T02:05:06.326Z,5.1
2017-03-10T02:06:08.794Z,5
2017-03-10T02:07:11.251Z,5
2017-03-10T02:08:14.226Z,5
2017-03-10T02:09:16.690Z,5
2017-03-10T02:10:19.157Z,5.1
2017-03-10T02:11:21.629Z,5
2017-03-10T02:12:23.907Z,5
2017-03-10T02:13:26.879Z,5
2017-03-10T02:14:29.330Z,5
2017-03-10T02:15:31.814Z,4.9
2017-03-10T02:16:35.301Z,4.9
2017-03-10T02:17:37.257Z,4.8
2017-03-10T02:18:39.715Z,4.8
2017-03-10T02:19:42.177Z,4.8
2017-03-10T02:20:44.637Z,4.8
2017-03-10T02:21:47.596Z,4.9
2017-03-10T02:22:50.053Z,4.9
2017-03-10T02:23:52.509Z,4.9
2017-03-10T02:25:57.884Z,4.9
2017-03-10T02:27:00.348Z,4.8
2017-03-10T02:28:02.818Z,4.9
2017-03-10T02:29:05.118Z,4.8
2017-03-10T02:30:08.086Z,4.8
2017-03-10T02:31:10.542Z,4.8
2017-03-10T02:32:12.997Z,4.8
2017-03-10T02:33:15.970Z,4.9
2017-03-10T02:34:18.443Z,4.8
2017-03-10T02:35:20.933Z,4.8
2017-03-10T02:36:23.385Z,4.8
2017-03-10T02:37:25.837Z,4.8
2017-03-10T02:38:28.793Z,4.8
2017-03-10T02:39:31.247Z,4.8
2017-03-10T02:40:33.699Z,4.8
2017-03-10T02:41:36.159Z,4.8
2017-03-10T02:43:41.532Z,4.8
2017-03-10T02:44:44.544Z,4.8
2017-03-10T02:45:46.495Z,4.7
2017-03-10T02:46:49.489Z,4.7
2017-03-10T02:47:51.953Z,4.7
2017-03-10T02:48:54.403Z,4.7
2017-03-10T02:49:56.860Z,4.7
2017-03-10T02:50:59.840Z,4.7
2017-03-10T02:52:02.335Z,4.7
2017-03-10T02:53:04.806Z,4.7
2017-03-10T02:54:07.105Z,4.7
2017-03-10T02:55:10.082Z,4.7
2017-03-10T02:56:12.535Z,4.7
2017-03-10T02:57:15.526Z,4.7
2017-03-10T03:01:25.387Z,4.7
2017-03-10T03:05:36.089Z,4.8
2017-03-10T03:06:38.043Z,4.8
2017-03-10T03:07:40.498Z,4.8
2017-03-10T03:09:45.882Z,4.8
2017-03-10T03:10:48.348Z,4.8
2017-03-10T03:21:13.975Z,4.8
2017-03-10T03:23:19.344Z,4.8
2017-03-10T04:16:30.959Z,4.8
2017-03-10T04:26:56.326Z,4.8
2017-03-10T04:30:03.434Z,4.9
2017-03-10T04:45:42.347Z,4.8
2017-03-10T04:46:44.819Z,4.8
2017-03-10T04:47:47.289Z,4.9
2017-03-10T04:48:49.772Z,4.9
2017-03-10T04:49:52.231Z,4.9
2017-03-10T04:50:54.693Z,4.9
2017-03-10T04:51:57.160Z,4.9
2017-03-10T04:53:00.650Z,4.9
2017-03-10T04:54:02.638Z,4.9
2017-03-10T04:55:05.100Z,4.9
2017-03-10T04:56:07.592Z,4.9
2017-03-10T04:57:10.577Z,4.9
2017-03-10T04:58:12.526Z,4.9
2017-03-10T04:59:15.500Z,4.9
2017-03-10T05:00:17.965Z,4.9
2017-03-10T05:01:20.424Z,4.9
2017-03-10T05:02:22.881Z,4.8
2017-03-10T05:03:25.380Z,4.8
2017-03-10T05:04:28.338Z,4.8
2017-03-10T05:05:30.806Z,4.9
2017-03-10T05:06:33.266Z,4.9
2017-03-10T05:07:35.728Z,4.9
2017-03-10T05:08:38.537Z,4.9
2017-03-10T05:09:41.218Z,4.9
2017-03-10T05:11:46.102Z,4.9
2017-03-10T05:12:48.568Z,4.8
2017-03-10T05:14:54.473Z,4.9
2017-03-10T05:15:56.439Z,4.9
2017-03-10T05:16:58.899Z,4.9
2017-03-10T05:18:01.366Z,4.8
2017-03-10T05:22:12.573Z,4.8
2017-03-10T05:23:14.526Z,4.8
2017-03-10T05:24:16.982Z,4.9
2017-03-10T05:25:19.440Z,4.8
2017-03-10T05:26:21.904Z,4.9
2017-03-10T05:27:24.725Z,4.8
2017-03-10T05:28:27.185Z,4.8
2017-03-10T05:29:29.658Z,4.9
2017-03-10T05:30:32.632Z,4.9
2017-03-10T05:31:35.088Z,4.9
2017-03-10T05:32:37.432Z,4.9
2017-03-10T05:33:39.886Z,4.9
2017-03-10T05:37:50.571Z,4.9
2017-03-10T05:38:53.031Z,4.9
2017-03-10T05:39:55.497Z,4.9
2017-03-10T05:40:57.946Z,4.8
2017-03-10T05:42:00.549Z,4.9
2017-03-10T05:43:02.999Z,4.9
2017-03-10T05:44:05.965Z,4.9
2017-03-10T05:45:08.265Z,4.8
2017-03-10T05:46:11.054Z,4.9
2017-03-10T05:47:13.524Z,4.8
2017-03-10T05:48:15.851Z,4.9
2017-03-10T05:49:18.812Z,4.9
2017-03-10T05:50:21.265Z,4.8
2017-03-10T05:51:23.559Z,4.8
2017-03-10T05:52:26.178Z,4.9
2017-03-10T05:54:31.559Z,4.9
2017-03-10T05:55:33.845Z,4.9
2017-03-10T05:56:36.806Z,4.9
2017-03-10T05:57:39.092Z,4.8
2017-03-10T05:59:44.473Z,4.9
2017-03-10T06:01:49.864Z,4.9
2017-03-10T06:02:51.829Z,4.8
2017-03-10T06:03:54.787Z,4.9
2017-03-10T06:04:57.267Z,5
2017-03-10T06:06:00.259Z,4.9
2017-03-10T06:07:02.219Z,4.9
2017-03-10T06:08:04.683Z,4.9
2017-03-10T06:09:07.680Z,4.9
2017-03-10T06:10:10.149Z,4.9
2017-03-10T06:12:15.010Z,4.9
2017-03-10T06:13:17.464Z,4.8
2017-03-10T06:14:20.971Z,4.8
2017-03-10T06:15:23.293Z,4.8
2017-03-10T06:16:25.286Z,4.8
2017-03-10T06:17:28.245Z,4.8
2017-03-10T06:18:30.713Z,4.8
2017-03-10T06:19:33.165Z,4.8
2017-03-10T06:20:35.617Z,4.8
2017-03-10T06:21:38.078Z,4.8
2017-03-10T06:22:40.900Z,4.8
2017-03-10T06:24:46.504Z,4.8
2017-03-10T06:25:48.455Z,4.7
2017-03-10T06:26:50.911Z,4.7
2017-03-10T06:29:58.693Z,4.6
2017-03-10T06:31:01.653Z,4.6
2017-03-10T06:32:05.193Z,4.6
2017-03-10T06:33:06.639Z,4.6
2017-03-10T06:34:09.110Z,4.7
2017-03-10T06:35:12.099Z,4.7
2017-03-10T06:36:14.052Z,4.8
2017-03-10T06:37:17.011Z,4.7
2017-03-10T06:38:19.484Z,4.8
2017-03-10T06:39:21.937Z,4.8
2017-03-10T06:40:24.924Z,4.8
2017-03-10T06:41:27.218Z,4.8
2017-03-10T06:42:29.687Z,4.7
2017-03-10T06:43:32.144Z,4.8
2017-03-10T06:44:35.105Z,4.8
2017-03-10T06:45:37.423Z,4.8
2017-03-10T06:46:39.902Z,4.8
2017-03-10T06:47:42.364Z,4.7
2017-03-10T06:48:45.857Z,4.7
2017-03-10T06:49:47.821Z,4.7
2017-03-10T06:50:50.276Z,4.7
2017-03-10T06:51:52.759Z,4.7
2017-03-10T06:52:55.212Z,4.7
2017-03-10T06:53:58.173Z,4.7
2017-03-10T06:55:00.639Z,4.7
2017-03-10T06:56:03.103Z,4.7
2017-03-10T06:57:05.562Z,4.7
2017-03-10T06:58:08.524Z,4.7
2017-03-10T06:59:11.504Z,4.8
2017-03-10T07:00:13.476Z,4.8
2017-03-10T07:01:15.931Z,4.8
2017-03-10T07:02:18.386Z,4.8
2017-03-10T07:03:21.369Z,4.8
2017-03-10T07:04:23.834Z,4.8
2017-03-10T07:05:26.286Z,4.8
2017-03-10T07:06:28.747Z,4.8
2017-03-10T07:07:31.233Z,4.9
2017-03-10T07:08:34.193Z,5
2017-03-10T07:09:36.648Z,5
2017-03-10T07:10:38.945Z,5
2017-03-10T07:11:41.744Z,5.1
2017-03-10T07:12:44.198Z,5.1
2017-03-10T07:13:46.651Z,5.1
2017-03-10T07:14:49.614Z,5.1
2017-03-10T07:15:52.080Z,5.1
2017-03-10T07:17:56.941Z,5.1
2017-03-10T07:18:59.908Z,5.2
2017-03-10T07:20:02.373Z,5.2
2017-03-10T07:21:04.853Z,5.3
2017-03-10T07:22:07.859Z,5.3
2017-03-10T07:23:09.830Z,5.3
2017-03-10T07:24:12.787Z,5.3
2017-03-10T07:25:15.260Z,5.3
2017-03-10T07:26:17.728Z,5.3
2017-03-10T07:27:20.197Z,5.4
2017-03-10T07:28:23.167Z,5.3
2017-03-10T07:29:25.635Z,5.4
2017-03-10T07:30:27.938Z,5.4
2017-03-10T07:31:30.900Z,5.5
2017-03-10T07:32:33.368Z,5.5
2017-03-10T07:33:35.838Z,5.5
2017-03-10T07:34:38.301Z,5.5
2017-03-10T07:35:41.098Z,5.6
2017-03-10T07:36:43.551Z,5.6
2017-03-10T07:37:46.017Z,5.6
2017-03-10T07:38:48.491Z,5.7
2017-03-10T07:39:51.459Z,5.6
2017-03-10T07:40:53.927Z,5.7
2017-03-10T07:41:56.384Z,5.8
2017-03-10T07:42:59.007Z,5.8
2017-03-10T07:44:01.511Z,5.9
2017-03-10T07:45:03.798Z,5.9
2017-03-10T07:46:06.608Z,5.9
2017-03-10T07:47:09.574Z,5.9
2017-03-10T07:48:12.026Z,6
2017-03-10T07:50:16.718Z,6
2017-03-10T07:51:19.695Z,6.1
2017-03-10T07:52:22.172Z,6.1
2017-03-10T07:53:24.629Z,6.2
2017-03-10T07:54:27.259Z,6.3
2017-03-10T07:55:30.792Z,6.3
2017-03-10T07:56:32.742Z,6.3
2017-03-10T07:57:35.036Z,6.2
2017-03-10T07:58:38.044Z,6.1
2017-03-10T07:59:40.512Z,6
2017-03-10T08:00:42.964Z,6
2017-03-10T08:01:45.430Z,6
2017-03-10T08:02:47.896Z,6
2017-03-10T08:03:50.862Z,6
2017-03-10T08:04:53.351Z,6.1
2017-03-10T08:05:55.806Z,6.1
2017-03-10T08:06:58.801Z,6.1
2017-03-10T08:08:00.768Z,6.2
2017-03-10T08:09:04.257Z,6.3
2017-03-10T08:10:06.206Z,6.4
2017-03-10T08:11:08.505Z,6.5
2017-03-10T08:12:11.468Z,6.5
2017-03-10T08:13:13.770Z,6.5
2017-03-10T08:14:16.222Z,6.4
2017-03-10T08:15:19.733Z,6.5
2017-03-10T08:16:21.695Z,6.5
2017-03-10T08:17:24.049Z,6.5
2017-03-10T08:18:27.542Z,6.5
2017-03-10T08:19:29.329Z,6.5
2017-03-10T08:20:31.814Z,6.5
2017-03-10T08:21:34.811Z,6.5
2017-03-10T08:22:37.277Z,6.5
2017-03-10T08:23:39.728Z,6.5
2017-03-10T08:24:42.196Z,6.5
2017-03-10T08:25:45.157Z,6.5
2017-03-10T08:26:47.612Z,6.5
2017-03-10T08:27:50.071Z,6.5
2017-03-10T08:28:52.571Z,6.5
2017-03-10T08:29:55.542Z,6.6
2017-03-10T08:30:58.010Z,6.6
2017-03-10T08:32:00.296Z,6.6
2017-03-10T08:33:03.267Z,6.5
2017-03-10T08:34:05.738Z,6.5
2017-03-10T08:35:08.093Z,6.5
2017-03-10T08:36:11.078Z,6.6
2017-03-10T08:37:13.364Z,6.7
2017-03-10T08:38:15.830Z,6.8
2017-03-10T08:39:19.868Z,6.8
2017-03-10T08:40:21.318Z,6.8
2017-03-10T08:41:23.768Z,6.8
2017-03-10T08:42:26.076Z,6.8
2017-03-10T08:43:29.060Z,6.8
2017-03-10T08:43:59.319Z,6.8
2017-03-10T08:44:31.595Z,7
2017-03-10T08:45:34.054Z,6.8
2017-03-10T08:46:37.011Z,6.8
2017-03-10T08:47:39.304Z,6.9
2017-03-10T08:48:41.759Z,7
2017-03-10T08:49:44.561Z,7
2017-03-10T08:50:47.045Z,6.8
2017-03-10T08:51:50.007Z,6.9
2017-03-10T08:52:52.479Z,6.9
2017-03-10T08:54:57.377Z,6.9
2017-03-10T08:56:00.329Z,6.6
2017-03-10T08:58:05.188Z,6.7
2017-03-10T08:59:08.151Z,6.9
2017-03-10T09:00:10.608Z,7
2017-03-10T09:01:13.094Z,7.4
2017-03-10T09:03:18.462Z,7.3
2017-03-10T09:04:20.910Z,7
2017-03-10T09:05:23.365Z,6.8
2017-03-10T09:06:26.349Z,6.6
2017-03-10T09:07:28.647Z,6.4
2017-03-10T09:08:31.115Z,6.3
2017-03-10T09:09:34.083Z,6.3
2017-03-10T09:10:36.406Z,6.4
2017-03-10T09:11:39.395Z,6.6
2017-03-10T09:12:41.856Z,6.8
2017-03-10T09:13:44.312Z,6.7
2017-03-10T09:14:47.118Z,6.5
2017-03-10T09:15:49.587Z,6.3
2017-03-10T09:16:52.041Z,6.1
2017-03-10T09:17:54.996Z,6.3
2017-03-10T09:18:57.450Z,6.5
2017-03-10T09:19:59.908Z,6.5
2017-03-10T09:21:02.384Z,6.6
2017-03-10T09:22:05.728Z,6.7
2017-03-10T09:23:07.679Z,6.8
2017-03-10T09:24:10.164Z,6.6
2017-03-10T09:25:13.122Z,6.9
2017-03-10T09:26:16.148Z,7.1
2017-03-10T09:27:18.103Z,7
2017-03-10T09:28:20.563Z,7
2017-03-10T09:29:23.366Z,7
2017-03-10T09:30:25.823Z,7
2017-03-10T09:31:28.512Z,6.8
2017-03-10T09:31:59.096Z,6.8
2017-03-10T09:32:31.349Z,6.9
2017-03-10T09:33:33.646Z,6.8
2017-03-10T09:34:36.440Z,7
2017-03-10T09:35:38.911Z,7
2017-03-10T09:37:44.281Z,6.8
2017-03-10T09:38:47.271Z,6.8
2017-03-10T09:39:49.250Z,6.6
2017-03-10T09:40:52.212Z,6.6
2017-03-10T09:41:54.665Z,6.6
2017-03-10T09:42:57.130Z,6.7
2017-03-10T09:43:59.591Z,6.7
2017-03-10T09:45:02.569Z,6.6
2017-03-10T09:46:05.028Z,6.6
2017-03-10T09:47:07.488Z,6.8
2017-03-10T09:48:11.002Z,6.5
2017-03-10T09:49:12.946Z,6.6
2017-03-10T09:49:43.211Z,6.6
2017-03-10T09:50:15.498Z,6.7
2017-03-10T09:50:45.747Z,6.7
2017-03-10T09:51:18.030Z,6.5
2017-03-10T09:52:20.496Z,6.8
2017-03-10T09:52:50.746Z,6.8
2017-03-10T09:53:23.027Z,6.9
2017-03-10T09:54:25.985Z,6.8
2017-03-10T09:55:28.277Z,6.6
2017-03-10T09:56:31.065Z,6.6
2017-03-10T09:57:33.551Z,6.5
2017-03-10T09:58:36.020Z,6.5
2017-03-10T09:59:38.977Z,6.5
2017-03-10T10:00:41.449Z,6.5
2017-03-10T10:01:43.917Z,6.5
2017-03-10T10:02:46.883Z,6.5
2017-03-10T10:03:49.341Z,6.4
2017-03-10T10:04:51.794Z,6.5
2017-03-10T10:05:54.262Z,6.5
2017-03-10T10:06:57.218Z,6.5
2017-03-10T10:07:59.675Z,6.3
2017-03-10T10:09:02.132Z,6.4
2017-03-10T10:10:05.134Z,6.5
2017-03-10T10:11:07.626Z,6.3
2017-03-10T10:12:10.606Z,6.1
2017-03-10T10:13:12.561Z,6
2017-03-10T10:14:15.548Z,6.1
2017-03-10T10:15:18.011Z,6.1
2017-03-10T10:16:21.005Z,6.1
2017-03-10T10:17:23.488Z,6.1
2017-03-10T10:18:25.941Z,6.1
2017-03-10T10:19:28.398Z,6.1
2017-03-10T10:20:30.696Z,6.1
2017-03-10T10:21:33.652Z,6.3
2017-03-10T10:22:35.942Z,6.2
2017-03-10T10:23:38.913Z,6.1
2017-03-10T10:24:41.380Z,6.3
2017-03-10T10:25:43.849Z,6.5
2017-03-10T10:26:46.139Z,6.6
2017-03-10T10:27:49.639Z,6.6
2017-03-10T10:28:51.591Z,6.6
2017-03-10T10:29:54.043Z,6.6
2017-03-10T10:30:57.532Z,6.6
2017-03-10T10:31:59.490Z,6.8
2017-03-10T10:33:01.955Z,7
2017-03-10T10:34:04.948Z,7
2017-03-10T10:34:35.205Z,7
2017-03-10T10:35:07.481Z,7.1
2017-03-10T10:36:09.777Z,7.1
2017-03-10T10:37:12.259Z,7.2
2017-03-10T10:38:15.220Z,7.2
2017-03-10T10:38:45.631Z,7.2
2017-03-10T10:39:17.920Z,7.2
2017-03-10T10:40:20.214Z,7.2
2017-03-10T10:41:22.665Z,7.2
2017-03-10T10:42:25.636Z,7.3
2017-03-10T10:43:28.304Z,7.4
2017-03-10T10:44:30.774Z,7.5
2017-03-10T10:45:33.756Z,7.6
2017-03-10T10:46:35.541Z,7.6
2017-03-10T10:47:38.546Z,7.8
2017-03-10T10:48:40.999Z,7.8
2017-03-10T10:49:43.969Z,7.9
2017-03-10T10:50:46.428Z,8
2017-03-10T10:51:48.876Z,7.8
2017-03-10T10:52:51.358Z,7.8
2017-03-10T10:53:54.364Z,7.7
2017-03-10T10:54:56.832Z,7.5
2017-03-10T10:55:59.290Z,7.4
2017-03-10T10:56:29.376Z,7.4
2017-03-10T10:57:02.137Z,7.4
2017-03-10T10:59:07.015Z,7.3
2017-03-10T11:00:09.976Z,7.5
2017-03-10T11:02:14.834Z,7.7
2017-03-10T11:03:17.803Z,7.8
2017-03-10T11:04:20.283Z,7.7
2017-03-10T11:05:22.760Z,7.8
2017-03-10T11:06:25.065Z,7.8
2017-03-10T11:07:28.022Z,7.7
2017-03-10T11:08:30.479Z,7.6
2017-03-10T11:09:33.436Z,7.4
2017-03-10T11:10:35.901Z,7.5
2017-03-10T11:11:38.354Z,7.5
2017-03-10T11:12:41.840Z,7.6
2017-03-10T11:13:43.804Z,7.8
2017-03-10T11:14:46.266Z,8
2017-03-10T11:15:48.718Z,8.1
2017-03-10T11:16:51.677Z,8.1
2017-03-10T11:17:54.130Z,8.2
2017-03-10T11:18:56.593Z,8.1
2017-03-10T11:19:59.562Z,8.1
2017-03-10T11:21:02.030Z,7.9
2017-03-10T11:22:04.480Z,7.7
2017-03-10T11:23:07.445Z,7.7
2017-03-10T11:24:09.738Z,7.7
2017-03-10T11:26:15.286Z,7.5
2017-03-10T11:27:17.743Z,7.4
2017-03-10T11:28:20.205Z,7.4
2017-03-10T11:29:23.035Z,7.6
2017-03-10T11:30:25.526Z,7.7
2017-03-10T11:31:27.978Z,7.8
2017-03-10T11:32:30.954Z,7.8
2017-03-10T11:33:33.422Z,7.9
2017-03-10T11:34:35.902Z,8
2017-03-10T11:35:38.352Z,8
2017-03-10T11:36:41.306Z,8
2017-03-10T11:37:43.765Z,8
2017-03-10T11:38:46.242Z,7.9
2017-03-10T11:39:49.195Z,7.8
2017-03-10T11:40:51.602Z,7.6
2017-03-10T11:41:54.057Z,7.6
2017-03-10T11:42:57.027Z,7.5
2017-03-10T11:43:59.501Z,7.5
2017-03-10T11:45:01.966Z,7.5
2017-03-10T11:46:04.756Z,7.6
2017-03-10T11:47:07.217Z,7.8
2017-03-10T11:48:10.006Z,8
2017-03-10T11:49:12.463Z,8.1
2017-03-10T11:50:15.253Z,8.2
2017-03-10T11:52:20.623Z,8.3
2017-03-10T11:53:23.110Z,8.5
2017-03-10T11:54:25.583Z,8.5
2017-03-10T11:55:28.072Z,8.4
2017-03-10T11:56:30.887Z,8.3
2017-03-10T11:57:33.365Z,8.2
2017-03-10T11:58:36.323Z,8.1
2017-03-10T11:59:38.821Z,8.1
2017-03-10T12:00:41.286Z,8
2017-03-10T12:01:44.255Z,8
2017-03-10T12:02:46.553Z,8.1
2017-03-10T12:03:49.521Z,8.1
2017-03-10T12:04:51.974Z,8.1
2017-03-10T12:05:54.447Z,8.2
2017-03-10T12:06:56.757Z,8.2
2017-03-10T12:07:59.567Z,8.1
2017-03-10T12:09:02.572Z,8.2
2017-03-10T12:10:05.427Z,8.1
2017-03-10T12:11:07.390Z,8
2017-03-10T12:12:10.356Z,7.9
2017-03-10T12:13:12.840Z,7.7
2017-03-10T12:14:15.640Z,7.6
2017-03-10T12:15:18.109Z,7.5
2017-03-10T12:16:20.587Z,7.5
2017-03-10T12:17:23.544Z,7.5
2017-03-10T12:18:26.018Z,7.4
2017-03-10T12:19:28.489Z,7.5
2017-03-10T12:20:31.351Z,7.5
2017-03-10T12:21:33.819Z,7.5
2017-03-10T12:22:36.112Z,7.5
2017-03-10T12:23:39.592Z,7.5
2017-03-10T12:24:41.564Z,7.6
2017-03-10T12:25:43.877Z,7.6
2017-03-10T12:26:46.685Z,7.5
2017-03-10T12:27:49.475Z,7.5
2017-03-10T12:28:51.929Z,7.5
2017-03-10T12:29:54.885Z,7.7
2017-03-10T12:30:57.337Z,7.9
2017-03-10T12:31:59.798Z,8
2017-03-10T12:33:02.761Z,8
2017-03-10T12:34:05.216Z,8
2017-03-10T12:35:08.010Z,8
2017-03-10T12:36:11.005Z,8
2017-03-10T12:37:12.803Z,7.9
2017-03-10T12:38:15.591Z,8
2017-03-10T12:39:18.056Z,7.9
2017-03-10T12:40:21.024Z,7.8
2017-03-10T12:41:23.493Z,7.9
2017-03-10T12:42:25.951Z,8.1
2017-03-10T12:43:28.744Z,8.2
2017-03-10T12:44:31.199Z,8.3
2017-03-10T12:45:34.696Z,8.5
2017-03-10T12:46:36.644Z,8.6
2017-03-10T12:47:39.453Z,8.6
2017-03-10T12:48:41.913Z,8.6
2017-03-10T12:50:47.284Z,8.3
2017-03-10T12:51:49.591Z,8.4
2017-03-10T12:52:52.565Z,8.3
2017-03-10T12:53:55.028Z,8.3
2017-03-10T12:54:57.481Z,8.4
2017-03-10T12:56:00.449Z,8.4
2017-03-10T12:57:02.902Z,8.3
2017-03-10T12:58:05.727Z,8.2
2017-03-10T12:59:08.183Z,8.1
2017-03-10T13:00:10.642Z,8
2017-03-10T13:01:13.600Z,8
2017-03-10T13:02:16.056Z,8
2017-03-10T13:03:18.547Z,7.8
2017-03-10T13:04:21.010Z,7.7
2017-03-10T13:05:23.977Z,7.6
2017-03-10T13:06:26.430Z,7.6
2017-03-10T13:07:28.760Z,7.6
2017-03-10T13:08:31.717Z,7.6
2017-03-10T13:09:34.172Z,7.7
2017-03-10T13:10:37.026Z,7.9
2017-03-10T13:11:39.492Z,8
2017-03-10T13:12:41.966Z,8.2
2017-03-10T13:13:44.924Z,8.3
2017-03-10T13:14:47.379Z,8.4
2017-03-10T13:15:49.842Z,8.5
2017-03-10T13:16:52.804Z,8.4
2017-03-10T13:18:57.667Z,8.4
2017-03-10T13:24:11.267Z,8.8
2017-03-10T13:25:13.717Z,8.8
2017-03-10T13:27:19.085Z,8.8
2017-03-10T13:28:21.537Z,8.8
2017-03-10T13:30:26.926Z,8.8
2017-03-10T13:31:29.439Z,8.8
2017-03-10T13:33:34.815Z,8.9
2017-03-10T13:34:37.107Z,8.9
2017-03-10T13:36:42.473Z,8.8
2017-03-10T13:37:45.441Z,8.7
2017-03-10T13:38:47.900Z,8.7
2017-03-10T13:39:50.366Z,8.7
2017-03-10T13:42:58.139Z,8.7
2017-03-10T14:03:50.689Z,8.2
2017-03-10T14:04:53.660Z,8.2
2017-03-10T14:05:56.133Z,8.1
2017-03-10T14:06:58.596Z,8.1
2017-03-10T14:08:01.564Z,8
2017-03-10T14:09:04.044Z,8
2017-03-10T14:10:06.512Z,8
2017-03-10T14:11:09.310Z,8.1
2017-03-10T14:12:11.764Z,8.3
2017-03-10T14:13:14.767Z,8.3
2017-03-10T14:14:17.228Z,8.5
2017-03-10T14:15:19.681Z,8.5
2017-03-10T14:16:22.637Z,8.6
2017-03-10T14:17:24.919Z,8.7
2017-03-10T14:18:27.910Z,8.6
2017-03-10T14:19:30.364Z,8.6
2017-03-10T14:20:32.852Z,8.6
2017-03-10T14:21:35.810Z,8.6
2017-03-10T14:22:38.162Z,8.6
2017-03-10T14:23:41.169Z,8.7
2017-03-10T14:24:43.625Z,8.7
2017-03-10T14:25:46.083Z,8.8
2017-03-10T14:26:48.558Z,8.9
2017-03-10T14:27:51.518Z,8.9
2017-03-10T14:28:53.978Z,8.9
2017-03-10T14:29:56.444Z,8.8
2017-03-10T14:30:59.421Z,8.8
2017-03-10T14:32:01.881Z,8.6
2017-03-10T14:33:04.881Z,8.6
2017-03-10T14:34:07.361Z,8.5
2017-03-10T14:35:09.839Z,8.4
2017-03-10T14:36:12.636Z,8.3
2017-03-10T14:37:15.457Z,8.3
2017-03-10T14:38:17.768Z,8.2
2017-03-10T14:39:20.227Z,8.1
2017-03-10T14:40:22.696Z,8.1
2017-03-10T14:42:28.075Z,8.2
2017-03-10T14:43:30.528Z,8.1
2017-03-10T14:44:34.033Z,8.2
2017-03-10T14:45:35.995Z,8.3
2017-03-10T14:46:38.470Z,8.3
2017-03-10T14:47:08.717Z,8.3
2017-03-10T14:47:43.348Z,8.4
2017-03-10T14:48:43.801Z,8.5
2017-03-10T14:49:46.591Z,8.5
2017-03-10T14:50:49.054Z,8.6
2017-03-10T14:51:52.012Z,8.6
2017-03-10T14:52:55.014Z,8.6
2017-03-10T14:53:56.799Z,8.8
2017-03-10T14:54:59.777Z,8.8
2017-03-10T14:56:02.237Z,8.8
2017-03-10T14:57:04.704Z,8.8
2017-03-10T14:58:07.663Z,8.8
2017-03-10T14:59:10.144Z,8.7
2017-03-10T15:00:12.604Z,8.7
2017-03-10T15:01:15.393Z,8.6
2017-03-10T15:02:17.860Z,8.5
2017-03-10T15:04:23.220Z,8.5
2017-03-10T15:05:26.206Z,8.5
2017-03-10T15:07:31.410Z,8.6
2017-03-10T15:09:36.266Z,8.7
2017-03-10T15:10:39.220Z,8.6
2017-03-10T15:11:41.491Z,8.7
2017-03-10T15:12:44.476Z,8.7
2017-03-10T15:13:46.948Z,8.8
2017-03-10T15:14:49.411Z,8.6
2017-03-10T15:15:52.361Z,8.6
2017-03-10T15:16:55.358Z,8.6
2017-03-10T15:17:57.308Z,8.6
2017-03-10T15:19:00.271Z,8.6
2017-03-10T15:20:02.738Z,8.6
2017-03-10T15:21:05.533Z,8.6
2017-03-10T15:22:07.852Z,8.6
2017-03-10T15:23:10.818Z,8.6
2017-03-10T15:24:13.103Z,8.6
2017-03-10T15:25:16.100Z,8.6
2017-03-10T15:26:18.402Z,8.6
2017-03-10T15:27:21.384Z,8.6
2017-03-10T15:28:23.856Z,8.5
2017-03-10T15:29:26.316Z,8.5
2017-03-10T15:30:29.274Z,8.5
2017-03-10T15:32:34.171Z,8.3
2017-03-10T15:34:39.539Z,8.3
2017-03-10T15:37:47.321Z,8
2017-03-10T15:40:55.589Z,8
2017-03-10T16:09:06.148Z,7.9
2017-03-10T16:11:11.527Z,7.9
2017-03-10T16:12:13.981Z,7.9
2017-03-10T16:18:29.993Z,7.8
2017-03-10T16:20:34.859Z,7.8
2017-03-10T16:21:37.816Z,7.8
2017-03-10T16:22:40.105Z,7.8
2017-03-10T16:23:42.907Z,7.8
2017-03-10T16:24:45.201Z,7.8
2017-03-10T16:25:48.157Z,7.8
2017-03-10T16:26:50.474Z,7.8
2017-03-10T16:27:53.481Z,7.8
2017-03-10T16:28:55.938Z,7.8
2017-03-10T16:29:58.894Z,7.8
2017-03-10T16:31:01.084Z,7.9
2017-03-10T16:32:04.424Z,7.8
2017-03-10T16:33:06.372Z,7.8
2017-03-10T16:34:09.325Z,7.7
2017-03-10T16:35:11.798Z,7.8
2017-03-10T16:36:14.252Z,7.8
2017-03-10T16:37:17.217Z,7.9
2017-03-10T16:38:19.670Z,7.9
2017-03-10T16:39:22.149Z,7.8
2017-03-10T16:40:25.110Z,7.8
2017-03-10T16:41:27.557Z,7.8
2017-03-10T16:42:30.029Z,7.7
2017-03-10T16:43:32.985Z,7.6
2017-03-10T16:44:35.439Z,7.6
2017-03-10T16:45:37.744Z,7.5
2017-03-10T16:46:40.717Z,7.5
2017-03-10T16:47:43.172Z,7.3
2017-03-10T16:48:45.627Z,7.4
2017-03-10T16:49:48.598Z,7.5
2017-03-10T16:50:51.056Z,7.5
2017-03-10T16:51:53.524Z,7.5
2017-03-10T16:52:56.480Z,7.5
2017-03-10T16:55:01.185Z,7.4
2017-03-10T16:56:04.174Z,7.3
2017-03-10T16:57:06.638Z,7.3
2017-03-10T16:58:09.597Z,7.3
2017-03-10T16:59:12.057Z,7.3
2017-03-10T17:00:14.850Z,7.3
2017-03-10T17:01:17.305Z,7.3
2017-03-10T17:02:19.423Z,7.3
2017-03-10T17:03:22.247Z,7.1
2017-03-10T17:04:25.209Z,7
2017-03-10T17:06:30.085Z,7
2017-03-10T17:07:33.061Z,7.1
2017-03-10T17:08:35.523Z,7
2017-03-10T17:09:38.010Z,7
2017-03-10T17:11:43.395Z,7
2017-03-10T17:12:45.685Z,6.8
2017-03-10T17:13:48.651Z,6.9
2017-03-10T17:14:51.131Z,6.9
2017-03-10T17:15:53.592Z,6.9
2017-03-10T17:16:56.591Z,6.8
2017-03-10T17:17:58.891Z,6.8
2017-03-10T17:20:04.266Z,6.9
2017-03-10T17:21:06.726Z,6.8
2017-03-10T17:22:09.703Z,6.9
2017-03-10T17:23:12.184Z,6.8
2017-03-10T17:24:14.644Z,6.8
2017-03-10T17:25:17.098Z,6.8
2017-03-10T17:26:20.083Z,6.8
2017-03-10T17:27:22.570Z,6.7
2017-03-10T17:28:24.869Z,6.6
2017-03-10T17:29:27.858Z,6.6
2017-03-10T17:30:30.319Z,6.6
2017-03-10T17:31:32.789Z,6.6
2017-03-10T17:32:35.753Z,6.5
2017-03-10T17:33:38.231Z,6.5
2017-03-10T17:34:41.050Z,6.5
2017-03-10T17:35:43.518Z,6.5
2017-03-10T17:36:45.986Z,6.4
2017-03-10T17:37:48.441Z,6.5
2017-03-10T17:38:51.410Z,6.5
2017-03-10T17:39:53.867Z,6.4
2017-03-10T17:40:56.324Z,6.3
2017-03-10T17:41:59.285Z,6.3
2017-03-10T17:43:01.747Z,6.3
2017-03-10T17:44:04.239Z,6.3
2017-03-10T17:45:06.711Z,6.3
2017-03-10T17:46:09.684Z,6.2
2017-03-10T17:47:12.149Z,6.2
2017-03-10T17:48:14.601Z,6.2
2017-03-10T17:49:17.061Z,6.1
2017-03-10T17:50:20.565Z,6.1
2017-03-10T17:51:22.251Z,6.1
2017-03-10T17:52:25.216Z,6
2017-03-10T17:53:27.706Z,6
2017-03-10T17:54:30.174Z,6
2017-03-10T17:55:33.155Z,6
2017-03-10T17:57:38.027Z,6
2017-03-10T17:59:43.226Z,6
2017-03-10T18:00:45.538Z,6
2017-03-10T18:03:53.659Z,5.9
2017-03-10T18:04:56.116Z,5.8
2017-03-10T18:05:59.116Z,5.8
2017-03-10T18:07:01.578Z,5.8
2017-03-10T18:08:04.063Z,5.8
2017-03-10T18:09:07.029Z,5.8
2017-03-10T18:11:11.892Z,6
2017-03-10T18:13:17.255Z,5.9
2017-03-10T18:14:19.718Z,5.8
2017-03-10T18:15:22.013Z,5.9
2017-03-10T18:16:24.977Z,5.8
2017-03-10T18:17:27.469Z,6
2017-03-10T18:18:29.928Z,6
2017-03-10T18:19:32.910Z,5.9
2017-03-10T18:20:35.376Z,5.9
2017-03-10T18:21:37.852Z,5.9
2017-03-10T18:22:40.308Z,5.9
2017-03-10T18:23:43.264Z,5.8
2017-03-10T18:24:45.555Z,5.8
2017-03-10T18:25:48.512Z,5.8
2017-03-10T18:26:51.113Z,5.8
2017-03-10T18:27:53.575Z,5.8
2017-03-10T18:28:55.874Z,5.8
2017-03-10T18:29:58.717Z,5.8